Lakki Marwat Weather



Lakki Marwat's Current Weather

Temprature 21.424o clear sky

clear sky

Rain: 0 %

Min Temprature21.424o
Max Temprature21.424o
Humidity24
Wind Speed1.76 m/h
Sun Rise06:51:09
Sun Set18:08:43
Current Time: 23-Feb-2019 15:40:15
Lat/Lon: 32.61, 70.91




Lakki Marwat's Geo Location




Lakki Marwat's Weather Forecast

Time Overall Temp Min Temp Max Temp Humidity Wind Speed Rain
23-Feb-2019 (Sat)
17:00:00 clear sky 21.030 21.030 21.424 24 1.76 m/h 0 %
20:00:00 clear sky 9.710 9.710 10.009 53 1.27 m/h 0 %
23:00:00 clear sky 5.570 5.570 5.765 76 1.07 m/h 0 %
24-Feb-2019 (Sun)
02:00:00 clear sky 4.290 4.290 4.385 78 1.06 m/h 0 %
05:00:00 clear sky 2.942 2.942 2.942 76 1.31 m/h 0 %
08:00:00 clear sky 4.953 4.953 4.953 57 1.21 m/h 0 %
11:00:00 clear sky 18.324 18.324 18.324 27 1.76 m/h 0 %
14:00:00 clear sky 22.106 22.106 22.106 30 1.87 m/h 0 %
17:00:00 light rain 21.821 21.821 21.821 25 2 m/h 1 %
20:00:00 light rain 10.518 10.518 10.518 71 0.41 m/h 42 %
23:00:00 light rain 6.511 6.511 6.511 88 1.61 m/h 106 %
25-Feb-2019 (Mon)
02:00:00 light rain 4.780 4.780 4.780 87 1.27 m/h 2 %
05:00:00 light rain 5.552 5.552 5.552 96 1.76 m/h 100 %
08:00:00 light rain 6.295 6.295 6.295 89 1.67 m/h 3 %
11:00:00 light rain 13.997 13.997 13.997 71 1.76 m/h 3 %
14:00:00 clear sky 16.948 16.948 16.948 60 2.47 m/h 0 %
17:00:00 few clouds 15.737 15.737 15.737 56 3.21 m/h 0 %
20:00:00 light rain 11.223 11.223 11.223 65 2.41 m/h 2 %
23:00:00 few clouds 5.667 5.667 5.667 92 1.31 m/h 0 %
26-Feb-2019 (Tue)
02:00:00 few clouds 3.426 3.426 3.426 84 1.51 m/h 0 %
05:00:00 scattered clouds 2.697 2.697 2.697 80 1.31 m/h 0 %
08:00:00 broken clouds 5.207 5.207 5.207 84 1.22 m/h 0 %
11:00:00 light rain 11.817 11.817 11.817 66 1.62 m/h 39 %
14:00:00 light rain 13.771 13.771 13.771 62 2.06 m/h 77 %
17:00:00 light rain 14.814 14.814 14.814 51 1.96 m/h 2 %
20:00:00 clear sky 6.761 6.761 6.761 83 1.22 m/h 0 %
23:00:00 clear sky 2.623 2.623 2.623 82 1.17 m/h 0 %
27-Feb-2019 (Wed)
02:00:00 clear sky 0.756 0.756 0.756 77 1.16 m/h 0 %
05:00:00 clear sky -0.356 -0.356 -0.356 76 1.2 m/h 0 %
08:00:00 clear sky 2.190 2.190 2.190 72 1.67 m/h 0 %
11:00:00 clear sky 13.870 13.870 13.870 51 1.76 m/h 0 %
14:00:00 clear sky 17.736 17.736 17.736 45 1.65 m/h 0 %
17:00:00 clear sky 17.998 17.998 17.998 34 2.06 m/h 0 %
20:00:00 broken clouds 9.692 9.692 9.692 60 2.12 m/h 0 %
23:00:00 light rain 10.191 10.191 10.191 78 1.77 m/h 3 %
28-Feb-2019 (Thu)
02:00:00 light rain 8.841 8.841 8.841 93 1.16 m/h 47 %
05:00:00 light rain 7.888 7.888 7.888 95 1.51 m/h 58 %
08:00:00 light rain 8.665 8.665 8.665 94 1.81 m/h 205 %
11:00:00 light rain 11.522 11.522 11.522 87 2.11 m/h 93 %
14:00:00 light rain 13.504 13.504 13.504 84 2.27 m/h 21 %

Famous Cities (60)